createdAt,value
2019-04-05T00:00:32.118Z,160.20
2019-04-05T00:02:58.479Z,152.20
2019-04-05T00:05:25.113Z,153.00
2019-04-05T00:07:51.471Z,158.73
2019-04-05T00:10:18.290Z,156.97
2019-04-05T00:12:45.187Z,157.33
2019-04-05T00:15:15.688Z,159.37
2019-04-05T00:17:40.240Z,154.13
2019-04-05T00:20:07.166Z,176.20
2019-04-05T00:22:33.583Z,168.63
2019-04-05T00:24:59.975Z,167.87
2019-04-05T00:27:26.603Z,154.20
2019-04-05T00:29:54.378Z,162.77
2019-04-05T00:32:21.006Z,162.47
2019-04-05T00:34:47.649Z,173.40
2019-04-05T00:37:14.008Z,166.27
2019-04-05T00:39:40.723Z,158.77
2019-04-05T00:42:07.138Z,163.87
2019-04-05T00:44:33.544Z,168.40
2019-04-05T00:46:59.885Z,161.17
2019-04-05T00:49:26.196Z,164.73
2019-04-05T00:51:52.565Z,174.57
2019-04-05T00:54:19.228Z,166.27
2019-04-05T00:56:45.569Z,163.97
2019-04-05T00:59:11.895Z,169.63
2019-04-05T01:01:39.344Z,178.80
2019-04-05T01:04:05.685Z,175.47
2019-04-05T01:06:32.314Z,181.87
2019-04-05T01:08:59.159Z,168.33
2019-04-05T01:11:25.483Z,166.30
2019-04-05T01:13:52.719Z,167.47
2019-04-05T01:16:19.047Z,178.07
2019-04-05T01:18:45.379Z,164.13
2019-04-05T01:21:17.404Z,176.90
2019-04-05T01:23:43.846Z,177.70
2019-04-05T01:26:12.115Z,180.07
2019-04-05T01:28:38.451Z,166.57
2019-04-05T01:31:05.141Z,182.67
2019-04-05T01:33:31.732Z,175.03
2019-04-05T01:35:58.314Z,180.67
2019-04-05T01:38:24.648Z,169.17
2019-04-05T01:40:51.522Z,184.10
2019-04-05T01:43:17.845Z,169.43
2019-04-05T01:45:53.626Z,172.03
2019-04-05T01:48:13.702Z,171.17
2019-04-05T01:50:40.040Z,161.73
2019-04-05T01:53:07.553Z,170.60
2019-04-05T01:55:33.885Z,173.70
2019-04-05T01:58:00.213Z,165.93
2019-04-05T02:00:26.847Z,157.50
2019-04-05T02:02:53.501Z,180.57
2019-04-05T02:05:20.061Z,184.73
2019-04-05T02:07:46.684Z,166.60
2019-04-05T02:10:13.688Z,177.57
2019-04-05T02:12:40.167Z,176.17
2019-04-05T02:15:07.297Z,188.97
2019-04-05T02:17:35.895Z,193.83
2019-04-05T02:20:05.312Z,174.83
2019-04-05T02:22:31.617Z,173.80
2019-04-05T02:24:57.948Z,187.40
2019-04-05T02:27:24.246Z,187.10
2019-04-05T02:29:50.700Z,192.17
2019-04-05T02:32:17.086Z,214.00
2019-04-05T02:34:43.703Z,170.53
2019-04-05T02:37:10.073Z,175.20
2019-04-05T02:39:36.430Z,197.03
2019-04-05T02:42:02.770Z,193.27
2019-04-05T02:44:30.189Z,194.50
2019-04-05T02:46:56.757Z,191.10
2019-04-05T02:49:26.875Z,193.37
2019-04-05T02:51:55.224Z,180.90
2019-04-05T02:54:21.670Z,192.50
2019-04-05T02:56:49.177Z,183.10
2019-04-05T02:59:16.826Z,188.33
2019-04-05T03:01:43.338Z,199.23
2019-04-05T03:04:10.316Z,190.03
2019-04-05T03:06:36.753Z,179.57
2019-04-05T03:09:05.148Z,187.57
2019-04-05T03:11:32.605Z,182.07
2019-04-05T03:14:00.972Z,173.87
2019-04-05T03:16:41.012Z,186.93
2019-04-05T03:19:11.481Z,175.37
2019-04-05T03:21:43.367Z,190.33
2019-04-05T03:24:14.996Z,176.63
2019-04-05T03:26:46.624Z,193.80
2019-04-05T03:29:13.394Z,182.30
2019-04-05T03:31:40.566Z,159.57
2019-04-05T03:34:07.645Z,182.03
2019-04-05T03:36:39.012Z,174.73
2019-04-05T03:39:06.353Z,170.37
2019-04-05T03:41:33.938Z,172.93
2019-04-05T03:44:00.557Z,185.13
2019-04-05T03:46:27.639Z,181.97
2019-04-05T03:48:54.855Z,180.20
2019-04-05T03:51:22.440Z,181.80
2019-04-05T03:53:49.340Z,184.87
2019-04-05T03:56:16.095Z,175.03
2019-04-05T03:58:42.900Z,193.97
2019-04-05T04:01:09.279Z,186.83
2019-04-05T04:03:35.760Z,193.93
2019-04-05T04:06:02.722Z,183.33
2019-04-05T04:08:29.545Z,176.47
2019-04-05T04:10:56.267Z,158.87
2019-04-05T04:13:22.663Z,173.97
2019-04-05T04:15:49.081Z,173.30
2019-04-05T04:18:15.420Z,176.97
2019-04-05T04:20:49.339Z,162.70
2019-04-05T04:23:17.223Z,171.77
2019-04-05T04:25:44.156Z,161.83
2019-04-05T04:28:11.072Z,183.40
2019-04-05T04:30:37.507Z,177.60
2019-04-05T04:33:04.994Z,149.77
2019-04-05T04:35:32.220Z,168.83
2019-04-05T04:37:58.616Z,182.67
2019-04-05T04:40:25.440Z,187.90
2019-04-05T04:42:52.481Z,160.00
2019-04-05T04:45:19.229Z,166.23
2019-04-05T04:47:45.871Z,174.90
2019-04-05T04:50:12.399Z,174.63
2019-04-05T04:52:39.137Z,170.97
2019-04-05T04:55:06.545Z,170.87
2019-04-05T04:57:33.454Z,165.00
2019-04-05T04:59:59.974Z,168.53
2019-04-05T05:02:26.345Z,156.77
2019-04-05T05:04:53.084Z,162.57
2019-04-05T05:07:19.460Z,165.77
2019-04-05T05:09:46.010Z,170.47
2019-04-05T05:12:12.378Z,174.73
2019-04-05T05:14:39.073Z,167.50
2019-04-05T05:17:05.868Z,159.33
2019-04-05T05:19:32.199Z,148.93
2019-04-05T05:21:58.597Z,164.67
2019-04-05T05:24:25.003Z,153.80
2019-04-05T05:26:53.188Z,167.03
2019-04-05T05:29:19.482Z,159.10
2019-04-05T05:31:46.230Z,157.03
2019-04-05T05:34:13.030Z,160.27
2019-04-05T05:36:39.733Z,165.90
2019-04-05T05:39:06.320Z,155.73
2019-04-05T05:41:32.729Z,146.47
2019-04-05T05:43:59.179Z,163.43
2019-04-05T05:46:25.543Z,156.57
2019-04-05T05:48:51.918Z,155.77
2019-04-05T05:51:18.231Z,160.27
2019-04-05T05:53:44.849Z,155.73
2019-04-05T05:56:11.188Z,189.17
2019-04-05T05:58:37.534Z,161.93
2019-04-05T06:01:03.877Z,160.03
2019-04-05T06:03:30.238Z,153.50
2019-04-05T06:06:04.160Z,187.87
2019-04-05T06:08:25.042Z,162.23
2019-04-05T06:10:51.397Z,164.33
2019-04-05T06:13:17.747Z,171.77
2019-04-05T06:15:44.341Z,161.63
2019-04-05T06:18:12.689Z,164.30
2019-04-05T06:20:40.895Z,161.60
2019-04-05T06:23:07.236Z,156.80
2019-04-05T06:25:33.589Z,163.93
2019-04-05T06:28:00.107Z,167.07
2019-04-05T06:30:28.727Z,154.53
2019-04-05T06:32:55.168Z,153.43
2019-04-05T06:35:21.875Z,160.20
2019-04-05T06:37:48.234Z,146.73
2019-04-05T06:40:14.531Z,153.27
2019-04-05T06:42:40.912Z,154.70
2019-04-05T06:45:07.314Z,147.90
2019-04-05T06:47:33.717Z,143.10
2019-04-05T06:50:00.027Z,157.60
2019-04-05T06:52:26.672Z,144.77
2019-04-05T06:54:53.332Z,135.43
2019-04-05T06:57:19.653Z,147.87
2019-04-05T06:59:46.007Z,153.17
2019-04-05T07:02:12.309Z,158.43
2019-04-05T07:04:38.626Z,142.17
2019-04-05T07:07:04.950Z,148.70
2019-04-05T07:09:33.924Z,142.87
2019-04-05T07:11:59.811Z,156.93
2019-04-05T07:14:27.409Z,154.60
2019-04-05T07:16:55.209Z,151.63
2019-04-05T07:19:21.719Z,157.50
2019-04-05T07:21:48.034Z,151.60
2019-04-05T07:24:14.405Z,141.30
2019-04-05T07:26:40.868Z,146.13
2019-04-05T07:29:07.184Z,144.33
2019-04-05T07:31:33.546Z,160.50
2019-04-05T07:34:00.143Z,133.93
2019-04-05T07:36:26.528Z,135.53
2019-04-05T07:38:52.861Z,146.10
2019-04-05T07:41:21.228Z,144.83
2019-04-05T07:43:47.553Z,136.23
2019-04-05T07:46:13.928Z,133.90
2019-04-05T07:48:45.031Z,142.53
2019-04-05T07:51:09.171Z,137.53
2019-04-05T07:53:35.541Z,133.87
2019-04-05T07:56:02.510Z,133.83
2019-04-05T07:58:29.181Z,139.63
2019-04-05T08:00:56.207Z,131.53
2019-04-05T08:03:23.053Z,134.13
2019-04-05T08:05:50.761Z,140.87
2019-04-05T08:08:41.239Z,141.37
2019-04-05T08:11:08.047Z,134.90
2019-04-05T08:13:37.695Z,140.93
2019-04-05T08:16:04.640Z,129.13
2019-04-05T08:18:31.278Z,133.80
2019-04-05T08:20:57.605Z,136.90
2019-04-05T08:23:24.233Z,125.23
2019-04-05T08:25:50.881Z,122.93
2019-04-05T08:28:17.524Z,120.27
2019-04-05T08:30:43.874Z,131.03
2019-04-05T08:33:10.348Z,125.50
2019-04-05T08:35:36.701Z,127.13
2019-04-05T08:38:03.741Z,118.97
2019-04-05T08:40:30.130Z,120.17
2019-04-05T08:42:56.569Z,121.20
2019-04-05T08:45:23.175Z,124.83
2019-04-05T08:47:49.814Z,123.97
2019-04-05T08:50:16.275Z,113.80
2019-04-05T08:52:42.606Z,124.27
2019-04-05T08:55:09.041Z,136.43
2019-04-05T08:57:35.661Z,124.43
2019-04-05T09:00:06.490Z,127.57
2019-04-05T09:02:33.147Z,127.93
2019-04-05T09:04:59.569Z,120.87
2019-04-05T09:07:26.184Z,125.50
2019-04-05T09:09:52.516Z,118.53
2019-04-05T09:12:19.129Z,124.90
2019-04-05T09:14:45.485Z,114.67
2019-04-05T09:17:12.819Z,120.03
2019-04-05T09:19:39.131Z,115.30
2019-04-05T09:22:06.588Z,113.83
2019-04-05T09:24:33.277Z,114.00
2019-04-05T09:27:01.040Z,112.57
2019-04-05T09:29:28.811Z,108.33
2019-04-05T09:31:55.436Z,107.70
2019-04-05T09:34:23.178Z,104.90
2019-04-05T09:36:49.744Z,106.00
2019-04-05T09:39:16.063Z,107.97
2019-04-05T09:41:42.458Z,108.70
2019-04-05T09:44:08.769Z,111.37
2019-04-05T09:46:46.064Z,102.77
2019-04-05T09:49:03.351Z,109.13
2019-04-05T09:51:30.149Z,104.23
2019-04-05T09:53:56.459Z,109.70
2019-04-05T09:56:22.792Z,100.80
2019-04-05T09:58:49.108Z,112.73
2019-04-05T10:01:15.836Z,116.43
2019-04-05T10:03:42.186Z,97.77
2019-04-05T10:06:08.511Z,93.23
2019-04-05T10:08:35.120Z,91.33
2019-04-05T10:11:01.452Z,85.17
2019-04-05T10:13:27.983Z,89.20
2019-04-05T10:15:54.418Z,83.07
2019-04-05T10:18:21.128Z,84.47
2019-04-05T10:20:47.486Z,79.27
2019-04-05T10:23:14.150Z,81.80
2019-04-05T10:25:40.517Z,75.03
2019-04-05T10:28:07.110Z,72.33
2019-04-05T10:30:33.457Z,80.67
2019-04-05T10:32:59.785Z,78.33
2019-04-05T10:35:26.165Z,72.87
2019-04-05T10:37:52.520Z,72.87
2019-04-05T10:40:18.817Z,71.43
2019-04-05T10:42:45.109Z,83.33
2019-04-05T10:45:12.804Z,79.50
2019-04-05T10:47:39.264Z,85.90
2019-04-05T10:50:09.835Z,80.90
2019-04-05T10:52:37.258Z,78.80
2019-04-05T10:55:04.550Z,74.67
2019-04-05T10:57:31.194Z,72.87
2019-04-05T10:59:57.810Z,80.20
2019-04-05T11:02:25.150Z,80.03
2019-04-05T11:04:51.480Z,77.80
2019-04-05T11:07:19.169Z,86.07
2019-04-05T11:09:45.488Z,80.03
2019-04-05T11:12:12.129Z,81.13
2019-04-05T11:14:38.474Z,80.17
2019-04-05T11:17:05.233Z,75.93
2019-04-05T11:19:34.821Z,68.33
2019-04-05T11:22:01.133Z,74.17
2019-04-05T11:24:27.876Z,74.93
2019-04-05T11:26:54.197Z,80.33
2019-04-05T11:29:20.611Z,70.47
2019-04-05T11:31:57.071Z,71.27
2019-04-05T11:34:16.080Z,71.03
2019-04-05T11:36:42.811Z,77.00
2019-04-05T11:39:09.575Z,71.43
2019-04-05T11:41:36.510Z,79.73
2019-04-05T11:44:04.107Z,63.43
2019-04-05T11:46:34.510Z,70.93
2019-04-05T11:49:03.845Z,60.73
2019-04-05T11:51:29.800Z,88.40
2019-04-05T11:53:56.464Z,75.70
2019-04-05T11:56:23.081Z,65.20
2019-04-05T11:58:50.558Z,70.97
2019-04-05T12:01:19.787Z,71.13
2019-04-05T12:03:46.140Z,67.00
2019-04-05T12:06:12.457Z,70.33
2019-04-05T12:08:39.907Z,71.80
2019-04-05T12:11:06.258Z,82.80
2019-04-05T12:13:33.502Z,69.90
2019-04-05T12:16:00.041Z,71.10
2019-04-05T12:18:26.718Z,74.37
2019-04-05T12:21:00.029Z,72.00
2019-04-05T12:23:33.394Z,72.60
2019-04-05T12:26:07.949Z,81.27
2019-04-05T12:28:34.277Z,71.70
2019-04-05T12:31:01.380Z,75.63
2019-04-05T12:33:27.912Z,82.33
2019-04-05T12:35:56.567Z,74.43
2019-04-05T12:38:31.555Z,88.33
2019-04-05T12:41:01.703Z,73.27
2019-04-05T12:43:28.343Z,70.07
2019-04-05T12:45:54.756Z,66.00
2019-04-05T12:48:21.657Z,64.10
2019-04-05T12:51:00.514Z,64.13
2019-04-05T12:53:17.059Z,60.37
2019-04-05T12:55:43.687Z,58.43
2019-04-05T12:58:10.349Z,80.33
2019-04-05T13:00:39.035Z,61.93
2019-04-05T13:03:05.506Z,54.77
2019-04-05T13:05:32.140Z,62.53
2019-04-05T13:07:58.814Z,51.40
2019-04-05T13:10:26.604Z,46.70
2019-04-05T13:12:56.832Z,42.73
2019-04-05T13:15:22.212Z,44.50
2019-04-05T13:17:48.862Z,44.37
2019-04-05T13:20:15.513Z,47.67
2019-04-05T13:22:41.812Z,57.57
2019-04-05T13:25:10.819Z,65.60
2019-04-05T13:27:36.848Z,67.13
2019-04-05T13:30:06.176Z,66.67
2019-04-05T13:32:32.503Z,61.13
2019-04-05T13:34:59.221Z,62.03
2019-04-05T13:37:25.572Z,59.30
2019-04-05T13:39:53.950Z,43.40
2019-04-05T13:42:20.387Z,40.00
2019-04-05T13:44:46.692Z,66.03
2019-04-05T13:47:13.441Z,18.83
2019-04-05T13:49:40.641Z,12.33
2019-04-05T13:52:12.065Z,11.43
2019-04-05T13:54:38.330Z,18.23
2019-04-05T13:57:08.578Z,32.37
2019-04-05T13:59:35.772Z,59.03
2019-04-05T14:02:06.443Z,60.77
2019-04-05T14:04:30.876Z,59.50
2019-04-05T14:06:57.192Z,61.60
2019-04-05T14:09:23.839Z,55.63
2019-04-05T14:11:50.468Z,57.53
2019-04-05T14:14:16.818Z,66.53
2019-04-05T14:16:43.675Z,51.13
2019-04-05T14:19:10.049Z,57.57
2019-04-05T14:21:40.831Z,54.97
2019-04-05T14:24:07.387Z,57.40
2019-04-05T14:26:33.697Z,58.70
2019-04-05T14:29:03.426Z,53.43
2019-04-05T14:31:31.589Z,57.30
2019-04-05T14:33:58.518Z,53.20
2019-04-05T14:36:25.137Z,59.13
2019-04-05T14:38:51.486Z,62.33
2019-04-05T14:41:18.107Z,53.17
2019-04-05T14:43:45.040Z,62.13
2019-04-05T14:46:12.316Z,63.77
2019-04-05T14:48:38.958Z,62.13
2019-04-05T14:51:05.330Z,65.70
2019-04-05T14:53:32.308Z,68.30
2019-04-05T14:55:59.648Z,66.83
2019-04-05T14:58:26.129Z,66.30
2019-04-05T15:00:52.759Z,63.87
2019-04-05T15:03:19.076Z,65.00
2019-04-05T15:05:45.746Z,69.83
2019-04-05T15:08:12.401Z,68.57
2019-04-05T15:10:39.816Z,62.77
2019-04-05T15:13:06.266Z,66.90
2019-04-05T15:15:33.239Z,57.87
2019-04-05T15:17:59.684Z,56.43
2019-04-05T15:20:26.143Z,57.33
2019-04-05T15:22:52.638Z,64.33
2019-04-05T15:25:21.515Z,58.40
2019-04-05T15:27:51.725Z,67.73
2019-04-05T15:30:16.632Z,60.37
2019-04-05T15:32:43.393Z,54.90
2019-04-05T15:35:10.014Z,56.70
2019-04-05T15:37:37.726Z,51.10
2019-04-05T15:40:06.150Z,56.30
2019-04-05T15:42:33.469Z,56.80
2019-04-05T15:44:59.808Z,55.80
2019-04-05T15:47:26.475Z,53.00
2019-04-05T15:49:53.343Z,43.43
2019-04-05T15:52:20.083Z,52.40
2019-04-05T15:54:46.406Z,47.10
2019-04-05T15:57:12.715Z,51.57
2019-04-05T15:59:44.988Z,49.63
2019-04-05T16:02:11.322Z,54.50
2019-04-05T16:04:37.722Z,48.07
2019-04-05T16:07:04.054Z,53.43
2019-04-05T16:09:30.909Z,54.30
2019-04-05T16:11:57.974Z,48.70
2019-04-05T16:14:24.611Z,56.67
2019-04-05T16:16:51.249Z,57.40
2019-04-05T16:19:18.012Z,62.33
2019-04-05T16:21:44.939Z,52.70
2019-04-05T16:24:11.276Z,46.63
2019-04-05T16:26:41.637Z,50.20
2019-04-05T16:29:08.047Z,53.37
2019-04-05T16:31:34.778Z,64.70
2019-04-05T16:34:01.130Z,58.13
2019-04-05T16:36:30.684Z,58.43
2019-04-05T16:38:55.886Z,57.10
2019-04-05T16:41:24.420Z,59.30
2019-04-05T16:43:50.741Z,56.40
2019-04-05T16:46:17.450Z,53.83
2019-04-05T16:48:43.940Z,52.23
2019-04-05T16:51:10.758Z,56.33
2019-04-05T16:53:39.119Z,55.80
2019-04-05T16:56:05.490Z,56.97
2019-04-05T16:58:31.917Z,57.43
2019-04-05T17:00:58.276Z,52.67
2019-04-05T17:03:24.757Z,77.17
2019-04-05T17:05:51.526Z,58.23
2019-04-05T17:08:17.975Z,60.00
2019-04-05T17:10:44.580Z,60.90
2019-04-05T17:13:11.244Z,63.83
2019-04-05T17:15:37.551Z,65.00
2019-04-05T17:18:06.115Z,61.73
2019-04-05T17:20:32.755Z,65.60
2019-04-05T17:22:59.089Z,67.70
2019-04-05T17:25:26.548Z,67.43
2019-04-05T17:27:53.200Z,67.13
2019-04-05T17:30:19.578Z,74.03
2019-04-05T17:32:46.021Z,67.40
2019-04-05T17:35:12.423Z,59.80
2019-04-05T17:37:38.772Z,65.90
2019-04-05T17:40:06.289Z,75.07
2019-04-05T17:42:34.766Z,70.40
2019-04-05T17:45:01.501Z,73.53
2019-04-05T17:47:28.336Z,63.30
2019-04-05T17:49:54.972Z,61.50
2019-04-05T17:52:21.420Z,65.20
2019-04-05T17:54:48.062Z,73.57
2019-04-05T17:57:14.940Z,56.63
2019-04-05T17:59:42.226Z,62.07
2019-04-05T18:02:08.553Z,68.67
2019-04-05T18:04:34.915Z,69.77
2019-04-05T18:07:01.652Z,66.83
2019-04-05T18:09:29.255Z,65.53
2019-04-05T18:11:55.614Z,62.47
2019-04-05T18:14:22.027Z,61.90
2019-04-05T18:16:48.724Z,64.83
2019-04-05T18:19:15.347Z,67.90
2019-04-05T18:21:41.753Z,77.43
2019-04-05T18:24:08.106Z,71.67
2019-04-05T18:26:34.806Z,67.20
2019-04-05T18:29:01.127Z,69.73
2019-04-05T18:31:27.561Z,68.50
2019-04-05T18:33:54.283Z,71.00
2019-04-05T18:36:20.647Z,69.20
2019-04-05T18:38:48.846Z,69.10
2019-04-05T18:41:15.244Z,66.83
2019-04-05T18:43:41.885Z,74.33
2019-04-05T18:46:09.405Z,84.50
2019-04-05T18:48:35.741Z,85.20
2019-04-05T18:51:02.381Z,76.90
2019-04-05T18:53:37.534Z,74.87
2019-04-05T18:55:57.067Z,79.90
2019-04-05T18:58:23.435Z,81.37
2019-04-05T19:00:50.069Z,80.87
2019-04-05T19:03:16.529Z,77.60
2019-04-05T19:05:43.337Z,79.23
2019-04-05T19:08:09.736Z,79.87
2019-04-05T19:10:37.506Z,71.73
2019-04-05T19:13:04.685Z,72.03
2019-04-05T19:15:31.323Z,79.87
2019-04-05T19:17:57.649Z,74.10
2019-04-05T19:20:24.292Z,73.43
2019-04-05T19:22:51.843Z,77.27
2019-04-05T19:25:18.490Z,80.63
2019-04-05T19:27:45.241Z,83.87
2019-04-05T19:50:04.717Z,98.20
2019-04-05T19:52:31.369Z,92.43
2019-04-05T19:55:01.414Z,88.63
2019-04-05T19:57:28.059Z,86.37
2019-04-05T19:59:56.023Z,83.50
2019-04-05T20:02:22.733Z,87.03
2019-04-05T20:04:50.816Z,86.10
2019-04-05T20:07:17.193Z,92.60
2019-04-05T20:09:44.004Z,116.17
2019-04-05T20:12:10.755Z,142.53
2019-04-05T20:14:37.789Z,98.90
2019-04-05T20:17:04.151Z,96.70
2019-04-05T20:19:30.554Z,95.73
2019-04-05T20:21:58.080Z,101.40
2019-04-05T20:24:25.031Z,101.33
2019-04-05T20:26:51.587Z,94.33
2019-04-05T20:29:18.569Z,87.47
2019-04-05T20:31:45.064Z,102.10
2019-04-05T20:34:11.835Z,95.23
2019-04-05T20:36:38.383Z,94.30
2019-04-05T20:39:06.768Z,105.73
2019-04-05T20:41:33.435Z,93.90
2019-04-05T20:44:00.220Z,109.37
2019-04-05T20:46:26.840Z,116.27
2019-04-05T20:48:53.197Z,111.40
2019-04-05T20:51:19.625Z,104.97
2019-04-05T20:53:45.981Z,105.40
2019-04-05T20:56:12.378Z,103.23
2019-04-05T20:58:38.739Z,102.60
2019-04-05T21:01:10.807Z,111.17
2019-04-05T21:03:40.121Z,110.90
2019-04-05T21:06:06.722Z,115.70
2019-04-05T21:08:33.222Z,110.73
2019-04-05T21:10:59.551Z,131.97
2019-04-05T21:13:26.259Z,123.00
2019-04-05T21:15:53.017Z,129.87
2019-04-05T21:18:19.386Z,113.83
2019-04-05T21:20:45.726Z,127.40
2019-04-05T21:23:12.071Z,106.03
2019-04-05T21:25:39.477Z,110.10
2019-04-05T21:28:08.430Z,118.67
2019-04-05T21:30:34.797Z,107.37
2019-04-05T21:33:01.145Z,106.60
2019-04-05T21:35:27.919Z,103.90
2019-04-05T21:37:54.274Z,104.50
2019-04-05T21:40:21.749Z,98.87
2019-04-05T21:42:48.205Z,99.77
2019-04-05T21:45:14.878Z,93.03
2019-04-05T21:47:41.232Z,94.17
2019-04-05T21:50:09.993Z,100.10
2019-04-05T21:52:36.397Z,89.30
2019-04-05T21:55:05.110Z,88.90
2019-04-05T21:57:31.623Z,86.10
2019-04-05T21:59:58.288Z,81.13
2019-04-05T22:02:24.923Z,82.03
2019-04-05T22:04:51.565Z,77.50
2019-04-05T22:07:17.994Z,78.40
2019-04-05T22:09:44.360Z,58.20
2019-04-05T22:12:11.179Z,58.07
2019-04-05T22:14:37.797Z,53.37
2019-04-05T22:17:04.126Z,47.60
2019-04-05T22:19:30.434Z,61.13
2019-04-05T22:21:57.105Z,51.80
2019-04-05T22:24:23.474Z,83.30
2019-04-05T22:26:49.781Z,76.93
2019-04-05T22:29:16.529Z,67.00
2019-04-05T22:31:42.851Z,74.47
2019-04-05T22:34:09.198Z,61.43
2019-04-05T22:36:35.526Z,66.47
2019-04-05T22:39:01.990Z,67.63
2019-04-05T22:41:30.623Z,63.33
2019-04-05T22:43:56.963Z,59.57
2019-04-05T22:46:23.309Z,61.43
2019-04-05T22:48:49.641Z,54.30
2019-04-05T22:51:16.040Z,66.40
2019-04-05T22:53:42.375Z,57.37
2019-04-05T22:56:09.021Z,46.30
2019-04-05T22:58:35.384Z,51.87
2019-04-05T23:01:01.709Z,50.43
2019-04-05T23:03:28.034Z,54.60
2019-04-05T23:05:54.342Z,56.77
2019-04-05T23:08:20.670Z,49.33
2019-04-05T23:10:47.007Z,64.90
2019-04-05T23:13:13.354Z,58.40
2019-04-05T23:15:39.653Z,57.13
2019-04-05T23:18:05.999Z,55.47
2019-04-05T23:20:32.321Z,64.57
2019-04-05T23:22:58.690Z,54.20
2019-04-05T23:25:25.019Z,75.70
2019-04-05T23:27:51.660Z,70.23
2019-04-05T23:30:19.130Z,72.87
2019-04-05T23:32:45.438Z,75.93
2019-04-05T23:35:12.286Z,57.07
2019-04-05T23:37:38.580Z,53.60
2019-04-05T23:40:05.715Z,52.20
2019-04-05T23:42:32.013Z,47.77
2019-04-05T23:44:58.501Z,57.27
2019-04-05T23:47:25.154Z,67.20
2019-04-05T23:49:51.496Z,66.80
2019-04-05T23:52:17.948Z,63.20
2019-04-05T23:54:45.287Z,64.13
2019-04-05T23:57:11.678Z,66.17
2019-04-05T23:59:38.356Z,78.30
